Time;durP1;ratioP1;P1;durP2;ratioP2;P2;SDS_P1;SDS_P2;PMS_P1;PMS_P2;Temp;Humidity;BMP_temperature;BMP_pressure;BME280_temperature;BME280_humidity;BME280_pressure;Samples;Min_cycle;Max_cycle;Signal;HPM_P1;HPM_P2
2022/03/07 00:00:07;;;;;;;13.73;3.60;;;24.30;92.90;;;;;;5054437;28;20193;-78
2022/03/07 00:02:34;;;;;;;17.37;4.03;;;24.20;92.30;;;;;;5054710;28;20172;-80
2022/03/07 00:05:02;;;;;;;12.17;3.70;;;24.10;92.70;;;;;;5044076;28;20199;-76
2022/03/07 00:07:29;;;;;;;15.30;4.27;;;24.00;93.10;;;;;;5054549;28;20307;-79
2022/03/07 00:09:56;;;;;;;15.10;4.27;;;24.00;93.40;;;;;;5051218;28;20654;-78
2022/03/07 00:12:24;;;;;;;16.60;4.67;;;24.00;93.60;;;;;;5053127;28;20591;-78
2022/03/07 00:14:52;;;;;;;18.13;4.67;;;24.00;93.90;;;;;;5053689;28;20175;-77
2022/03/07 00:17:19;;;;;;;12.70;4.87;;;23.90;94.00;;;;;;5052711;28;20172;-78
2022/03/07 00:19:46;;;;;;;16.33;4.87;;;23.90;94.10;;;;;;5053939;28;20176;-78
2022/03/07 00:22:14;;;;;;;20.00;5.10;;;23.80;94.20;;;;;;5054554;28;20649;-76
2022/03/07 00:24:41;;;;;;;14.83;5.03;;;23.80;94.50;;;;;;5053781;28;20190;-78
2022/03/07 00:27:09;;;;;;;15.93;5.20;;;23.80;94.70;;;;;;5053546;28;20188;-77
2022/03/07 00:29:36;;;;;;;17.87;6.07;;;23.80;94.50;;;;;;5052528;28;20211;-78
2022/03/07 00:32:04;;;;;;;15.40;6.03;;;23.70;94.80;;;;;;5054702;28;20600;-77
2022/03/07 00:34:31;;;;;;;17.43;6.60;;;23.80;94.80;;;;;;5053820;28;20180;-78
2022/03/07 00:36:58;;;;;;;18.03;6.10;;;23.70;94.70;;;;;;5047896;28;20179;-78
2022/03/07 00:39:26;;;;;;;13.90;6.03;;;23.70;94.90;;;;;;5053482;28;20176;-78
2022/03/07 00:41:53;;;;;;;16.53;5.67;;;23.80;94.70;;;;;;5054318;28;20187;-77
2022/03/07 00:44:20;;;;;;;13.40;6.77;;;23.70;94.60;;;;;;5051585;28;20241;-77
2022/03/07 00:46:48;;;;;;;13.17;6.93;;;23.70;94.20;;;;;;5044029;28;20259;-77
2022/03/07 00:49:15;;;;;;;14.90;7.17;;;23.60;93.90;;;;;;5047619;28;20622;-78
2022/03/07 00:51:42;;;;;;;8.10;4.87;;;23.50;93.40;;;;;;5053809;28;20694;-78
2022/03/07 00:54:10;;;;;;;9.60;4.10;;;23.50;93.60;;;;;;5053358;28;20180;-76
2022/03/07 00:56:38;;;;;;;15.13;4.70;;;23.40;93.30;;;;;;5053663;28;20535;-79
2022/03/07 00:59:05;;;;;;;13.43;4.00;;;23.30;93.40;;;;;;5053654;28;20325;-77
2022/03/07 01:01:32;;;;;;;14.17;4.53;;;23.30;93.40;;;;;;5052585;28;20188;-78
2022/03/07 01:04:00;;;;;;;12.13;3.93;;;23.30;93.30;;;;;;5053713;28;20176;-78
2022/03/07 01:06:27;;;;;;;10.50;3.97;;;23.30;93.50;;;;;;5053885;28;20306;-78
2022/03/07 01:08:54;;;;;;;11.57;4.17;;;23.30;93.40;;;;;;5048726;28;20232;-77
2022/03/07 01:11:22;;;;;;;11.13;5.57;;;23.30;93.60;;;;;;5053124;28;20309;-77
2022/03/07 01:13:49;;;;;;;11.33;6.00;;;23.40;93.60;;;;;;5052639;28;20203;-78
2022/03/07 01:16:19;;;;;;;12.80;6.73;;;23.40;93.80;;;;;;5052416;28;20195;-78
2022/03/07 01:18:46;;;;;;;10.50;4.30;;;23.40;93.80;;;;;;5051737;28;20176;-77
2022/03/07 01:21:14;;;;;;;10.50;7.93;;;23.50;94.10;;;;;;5052024;28;20191;-77
2022/03/07 01:23:42;;;;;;;14.07;8.47;;;23.60;94.30;;;;;;5052254;28;20525;-77
2022/03/07 01:26:10;;;;;;;26.93;22.27;;;23.60;94.10;;;;;;5052732;28;20198;-77
2022/03/07 01:28:37;;;;;;;12.30;6.27;;;23.80;94.10;;;;;;5052019;28;20211;-77
2022/03/07 01:31:04;;;;;;;11.57;5.20;;;23.80;93.90;;;;;;5053281;28;20191;-76
2022/03/07 01:33:32;;;;;;;9.83;4.40;;;23.90;93.60;;;;;;5052869;28;20184;-77
2022/03/07 01:35:59;;;;;;;7.23;3.97;;;24.10;93.70;;;;;;5052834;28;20716;-76
2022/03/07 01:38:26;;;;;;;11.87;4.47;;;24.20;93.30;;;;;;5052810;28;20188;-77
2022/03/07 01:40:54;;;;;;;15.47;5.87;;;24.30;93.10;;;;;;5046256;28;20592;-77
2022/03/07 01:43:21;;;;;;;10.67;4.47;;;24.40;92.70;;;;;;5050367;28;20180;-79
2022/03/07 01:45:49;;;;;;;12.27;4.70;;;24.60;92.50;;;;;;5052284;28;20187;-76
2022/03/07 01:48:16;;;;;;;9.00;4.60;;;24.80;92.10;;;;;;5052506;28;20265;-77
2022/03/07 01:50:44;;;;;;;10.87;3.50;;;25.00;90.60;;;;;;5047923;28;20176;-76
2022/03/07 01:53:11;;;;;;;8.63;2.87;;;25.30;90.20;;;;;;5052329;28;20271;-76
2022/03/07 01:55:38;;;;;;;12.57;3.27;;;25.50;90.20;;;;;;5051922;28;20223;-76
2022/03/07 01:58:06;;;;;;;13.43;2.87;;;25.80;89.90;;;;;;5050296;28;20184;-76
2022/03/07 02:00:33;;;;;;;14.03;2.73;;;26.00;89.00;;;;;;5045254;28;20195;-77
2022/03/07 02:03:01;;;;;;;13.97;2.57;;;26.00;88.10;;;;;;5044375;28;20184;-75
2022/03/07 02:05:28;;;;;;;10.07;2.60;;;26.10;88.20;;;;;;5051723;28;20199;-74
2022/03/07 02:07:57;;;;;;;15.53;3.03;;;26.10;87.50;;;;;;5050604;28;20188;-75
2022/03/07 02:10:27;;;;;;;16.77;3.23;;;26.10;88.10;;;;;;5050345;28;20195;-74
2022/03/07 02:12:54;;;;;;;15.00;2.67;;;26.00;87.60;;;;;;5050854;28;20192;-74
2022/03/07 02:15:22;;;;;;;16.87;3.43;;;26.00;88.50;;;;;;5047563;28;20280;-74
2022/03/07 02:17:49;;;;;;;11.47;2.87;;;25.90;88.40;;;;;;5051563;28;20265;-74
2022/03/07 02:20:18;;;;;;;13.20;3.43;;;25.80;89.10;;;;;;5051968;28;20188;-74
2022/03/07 02:22:45;;;;;;;16.90;4.10;;;25.80;89.70;;;;;;5051227;28;20180;-73
2022/03/07 02:25:13;;;;;;;14.23;3.53;;;25.80;89.70;;;;;;5051312;28;20188;-73
2022/03/07 02:27:40;;;;;;;15.97;3.13;;;25.80;90.10;;;;;;5051548;28;20184;-74
2022/03/07 02:30:08;;;;;;;18.03;3.87;;;25.60;90.30;;;;;;5051770;28;20183;-74
2022/03/07 02:32:35;;;;;;;17.47;3.63;;;25.50;90.40;;;;;;5051161;28;20191;-74
2022/03/07 02:35:03;;;;;;;21.17;4.00;;;25.50;90.70;;;;;;5049191;28;20260;-74
2022/03/07 02:37:30;;;;;;;17.77;3.67;;;25.50;90.50;;;;;;5051623;28;20176;-74
2022/03/07 02:39:58;;;;;;;17.93;3.47;;;25.70;91.00;;;;;;5051186;28;20180;-73
2022/03/07 02:42:25;;;;;;;12.80;3.03;;;25.80;90.30;;;;;;5051741;28;20184;-73
2022/03/07 02:44:52;;;;;;;18.87;3.10;;;26.20;89.20;;;;;;5051588;28;20184;-75
2022/03/07 02:47:22;;;;;;;14.63;2.70;;;26.30;88.90;;;;;;5051580;28;20218;-73
2022/03/07 02:49:50;;;;;;;17.57;3.40;;;26.40;87.70;;;;;;5051234;28;20223;-74
2022/03/07 02:52:17;;;;;;;16.53;3.00;;;26.70;86.60;;;;;;5051562;28;20179;-75
2022/03/07 02:54:44;;;;;;;16.10;2.97;;;27.00;86.40;;;;;;5051323;28;20198;-76
2022/03/07 02:57:12;;;;;;;12.33;2.47;;;27.20;85.00;;;;;;5047906;28;20181;-76
2022/03/07 02:59:39;;;;;;;11.93;2.43;;;27.30;83.80;;;;;;5049613;28;20219;-75
2022/03/07 03:02:06;;;;;;;10.03;2.40;;;27.40;83.10;;;;;;5051107;28;20168;-78
2022/03/07 03:04:34;;;;;;;18.40;3.47;;;27.40;81.80;;;;;;5048191;28;20184;-76
2022/03/07 03:07:03;;;;;;;15.17;3.03;;;27.70;81.50;;;;;;5048672;28;20637;-77
2022/03/07 03:09:30;;;;;;;13.40;2.40;;;28.20;81.20;;;;;;5049517;28;20724;-79
2022/03/07 03:11:57;;;;;;;9.27;2.80;;;28.30;79.60;;;;;;5046032;28;20245;-80
2022/03/07 03:14:25;;;;;;;13.60;3.07;;;28.20;80.10;;;;;;5049754;28;20269;-75
2022/03/07 03:16:53;;;;;;;8.23;2.07;;;27.30;83.60;;;;;;5030734;28;20180;-76
2022/03/07 03:19:21;;;;;;;10.27;2.30;;;26.70;84.50;;;;;;5030430;28;20185;-78
2022/03/07 03:21:48;;;;;;;14.77;2.90;;;26.30;87.00;;;;;;5032098;28;20181;-78
2022/03/07 03:24:16;;;;;;;13.33;2.30;;;26.20;88.00;;;;;;5037330;28;20199;-76
2022/03/07 03:26:43;;;;;;;11.57;2.40;;;26.70;88.00;;;;;;5053987;28;20638;-76
2022/03/07 03:29:11;;;;;;;10.53;2.50;;;27.10;85.80;;;;;;5055733;28;20289;-74
2022/03/07 03:31:38;;;;;;;14.17;2.53;;;27.50;85.80;;;;;;5055879;28;20788;-76
2022/03/07 03:34:05;;;;;;;14.77;2.47;;;27.50;83.10;;;;;;5055911;28;20230;-75
2022/03/07 03:36:34;;;;;;;11.07;2.40;;;27.70;82.70;;;;;;5055968;28;20704;-75
2022/03/07 03:39:01;;;;;;;13.20;2.77;;;27.70;83.40;;;;;;5055823;28;20179;-74
2022/03/07 03:41:29;;;;;;;10.67;2.80;;;27.80;81.80;;;;;;5055377;28;20218;-75
2022/03/07 03:43:56;;;;;;;12.97;2.50;;;27.90;81.90;;;;;;5054393;28;20732;-76
2022/03/07 03:46:23;;;;;;;12.23;2.97;;;27.70;83.00;;;;;;5037609;28;20602;-75
2022/03/07 03:48:51;;;;;;;15.13;3.00;;;27.60;84.80;;;;;;5035531;28;20741;-76
2022/03/07 03:51:18;;;;;;;16.27;3.10;;;27.70;84.90;;;;;;5035245;28;20187;-76
2022/03/07 03:53:45;;;;;;;15.93;3.00;;;27.50;85.20;;;;;;5046229;28;20274;-76
2022/03/07 03:56:13;;;;;;;12.83;2.93;;;27.30;86.10;;;;;;5055325;28;20168;-77
2022/03/07 03:58:40;;;;;;;13.77;2.67;;;27.10;85.70;;;;;;5055236;28;20175;-76
2022/03/07 04:01:08;;;;;;;15.13;4.90;;;26.80;87.70;;;;;;5055249;28;20194;-77
2022/03/07 04:03:35;;;;;;;16.00;3.13;;;26.80;88.60;;;;;;5069103;28;20177;-75
2022/03/07 04:06:04;;;;;;;17.53;3.50;;;26.80;87.30;;;;;;5047788;28;20634;-76
2022/03/07 04:08:33;;;;;;;20.57;3.20;;;27.70;85.10;;;;;;5047819;28;20212;-77
2022/03/07 04:11:00;;;;;;;16.20;2.90;;;28.40;80.60;;;;;;5050897;28;20176;-76
2022/03/07 04:13:27;;;;;;;11.90;3.23;;;29.10;79.30;;;;;;5036903;28;20238;-76
2022/03/07 04:15:55;;;;;;;11.13;2.17;;;29.20;77.20;;;;;;5048949;28;20233;-77
2022/03/07 04:18:22;;;;;;;10.77;2.43;;;28.70;78.50;;;;;;5053320;28;20180;-75
2022/03/07 04:20:50;;;;;;;12.27;2.70;;;28.30;79.20;;;;;;5054905;28;20168;-75
2022/03/07 04:23:20;;;;;;;13.20;2.60;;;28.00;81.10;;;;;;5046181;28;20196;-72
2022/03/07 04:25:48;;;;;;;11.47;2.17;;;27.90;80.30;;;;;;5048400;28;20188;-76
2022/03/07 04:28:16;;;;;;;15.50;2.87;;;27.70;80.00;;;;;;5037562;28;20207;-73
2022/03/07 04:30:43;;;;;;;12.87;2.50;;;27.30;81.80;;;;;;5054130;28;20191;-75
2022/03/07 04:33:11;;;;;;;12.47;2.67;;;26.90;81.80;;;;;;5049638;28;20274;-75
2022/03/07 04:35:39;;;;;;;16.33;3.17;;;26.70;82.90;;;;;;5052941;28;20188;-75
2022/03/07 04:38:06;;;;;;;13.43;3.07;;;26.80;83.00;;;;;;5052572;28;20194;-76
2022/03/07 04:40:34;;;;;;;15.43;3.13;;;26.80;81.70;;;;;;5053624;28;20267;-75
2022/03/07 04:43:01;;;;;;;16.87;2.87;;;27.20;81.40;;;;;;5050750;28;20642;-75
2022/03/07 04:45:28;;;;;;;11.43;2.50;;;27.10;82.70;;;;;;5051881;28;20222;-74
2022/03/07 04:47:56;;;;;;;16.80;3.30;;;26.90;83.60;;;;;;5051235;28;20176;-74
2022/03/07 04:50:23;;;;;;;15.87;3.10;;;26.80;84.50;;;;;;5050853;28;20207;-76
2022/03/07 04:52:51;;;;;;;16.40;3.47;;;26.80;83.70;;;;;;5051701;28;20191;-77
2022/03/07 04:55:18;;;;;;;16.33;3.37;;;26.80;83.60;;;;;;5053618;28;20195;-77
2022/03/07 04:57:45;;;;;;;20.43;2.83;;;26.80;83.90;;;;;;5049612;28;20183;-74
2022/03/07 05:00:14;;;;;;;16.70;2.57;;;26.80;83.00;;;;;;5052990;28;20184;-78
2022/03/07 05:02:41;;;;;;;13.53;2.20;;;27.20;82.50;;;;;;5048222;28;20188;-75
2022/03/07 05:05:09;;;;;;;14.97;2.40;;;27.30;81.60;;;;;;5052906;28;20231;-77
2022/03/07 05:07:36;;;;;;;13.57;3.33;;;27.30;80.90;;;;;;5053447;28;20272;-74
2022/03/07 05:10:04;;;;;;;8.10;2.03;;;27.10;81.00;;;;;;5051444;28;20223;-76
2022/03/07 05:12:32;;;;;;;11.23;2.40;;;27.20;81.10;;;;;;5045951;28;20184;-75
2022/03/07 05:14:59;;;;;;;9.97;2.10;;;26.90;82.20;;;;;;5045278;28;20191;-72
2022/03/07 05:17:27;;;;;;;10.20;2.10;;;26.80;82.70;;;;;;5052910;28;20610;-75
2022/03/07 05:19:54;;;;;;;10.60;2.43;;;26.60;82.50;;;;;;5052754;28;20194;-74
2022/03/07 05:22:23;;;;;;;10.80;2.63;;;26.60;82.80;;;;;;5050618;28;21843;-75
2022/03/07 05:24:51;;;;;;;10.23;2.40;;;26.50;82.70;;;;;;5052401;28;20242;-75
2022/03/07 05:27:18;;;;;;;11.23;2.53;;;26.70;82.40;;;;;;5052069;28;20203;-77
2022/03/07 05:29:46;;;;;;;20.20;3.10;;;26.70;82.50;;;;;;5051490;28;20258;-74
2022/03/07 05:32:13;;;;;;;10.87;2.57;;;26.70;82.70;;;;;;5051520;28;20552;-75
2022/03/07 05:34:40;;;;;;;14.13;3.13;;;26.70;83.30;;;;;;5051441;28;20223;-75
2022/03/07 05:37:08;;;;;;;14.30;2.70;;;26.90;82.40;;;;;;5052614;28;20238;-76
2022/03/07 05:39:35;;;;;;;19.57;3.57;;;26.90;82.40;;;;;;5050164;28;20607;-75
2022/03/07 05:42:03;;;;;;;17.60;2.80;;;26.80;82.60;;;;;;5052244;28;20188;-80
2022/03/07 05:44:31;;;;;;;14.43;3.07;;;26.80;83.50;;;;;;5051175;28;20191;-72
2022/03/07 05:46:58;;;;;;;16.43;3.03;;;26.80;83.10;;;;;;5050623;28;20305;-75
2022/03/07 05:49:25;;;;;;;18.10;3.63;;;26.80;83.60;;;;;;5050683;28;20223;-73
2022/03/07 05:51:53;;;;;;;19.20;3.27;;;26.80;83.90;;;;;;5052331;28;20191;-74
2022/03/07 05:54:20;;;;;;;17.17;3.43;;;26.50;84.90;;;;;;5052155;28;20241;-74
2022/03/07 05:56:47;;;;;;;20.90;3.70;;;26.30;85.40;;;;;;5051295;28;20184;-73
2022/03/07 05:59:15;;;;;;;24.80;3.53;;;26.10;86.20;;;;;;5049026;28;20184;-74
2022/03/07 06:01:42;;;;;;;24.13;4.27;;;25.90;86.80;;;;;;5051640;28;20211;-73
2022/03/07 06:04:09;;;;;;;18.50;3.63;;;25.90;86.90;;;;;;5051986;28;20183;-74
2022/03/07 06:06:37;;;;;;;21.67;3.70;;;25.80;86.90;;;;;;5051984;28;20262;-72
2022/03/07 06:09:04;;;;;;;25.27;4.70;;;25.80;87.50;;;;;;5051928;28;20630;-74
2022/03/07 06:11:33;;;;;;;20.20;3.90;;;25.60;87.80;;;;;;5052048;28;20183;-73
2022/03/07 06:14:00;;;;;;;24.57;4.33;;;25.60;88.20;;;;;;5051417;28;20230;-77
2022/03/07 06:16:27;;;;;;;21.60;3.77;;;25.40;88.30;;;;;;5046499;28;20188;-73
2022/03/07 06:18:54;;;;;;;21.73;3.77;;;25.30;88.80;;;;;;5048527;28;20233;-73
2022/03/07 06:21:22;;;;;;;30.73;4.63;;;25.30;89.00;;;;;;5050005;28;20177;-73
2022/03/07 06:23:49;;;;;;;25.30;4.37;;;25.30;89.30;;;;;;5051643;28;20200;-73
2022/03/07 06:26:16;;;;;;;29.43;4.60;;;25.20;89.30;;;;;;5045105;28;20521;-73
2022/03/07 06:28:44;;;;;;;25.23;4.40;;;25.10;89.20;;;;;;5041547;28;20261;-73
2022/03/07 06:31:11;;;;;;;20.33;3.57;;;25.10;89.40;;;;;;5052981;28;20595;-74
2022/03/07 06:33:38;;;;;;;23.87;5.07;;;25.10;89.50;;;;;;5038601;28;20238;-73
2022/03/07 06:36:06;;;;;;;19.20;3.87;;;25.00;89.50;;;;;;5033693;28;20704;-73
2022/03/07 06:38:34;;;;;;;21.30;4.73;;;25.00;89.70;;;;;;5047391;28;20168;-72
2022/03/07 06:41:02;;;;;;;24.83;4.13;;;25.00;89.80;;;;;;5044139;28;20275;-74
2022/03/07 06:43:29;;;;;;;23.97;4.17;;;24.90;89.90;;;;;;5051839;28;20176;-75
2022/03/07 06:45:57;;;;;;;23.83;4.60;;;24.90;90.00;;;;;;5045708;28;20185;-75
2022/03/07 06:48:24;;;;;;;20.60;4.60;;;24.80;90.50;;;;;;5032509;28;20220;-76
2022/03/07 06:50:51;;;;;;;26.70;4.70;;;24.70;91.10;;;;;;5047166;28;20191;-74
2022/03/07 06:53:19;;;;;;;25.30;4.43;;;24.60;92.00;;;;;;5036391;28;20204;-76
2022/03/07 06:55:46;;;;;;;19.57;4.60;;;24.40;92.70;;;;;;5032073;28;20180;-78
2022/03/07 06:58:14;;;;;;;23.40;5.53;;;24.30;93.30;;;;;;5034138;28;20187;-76
2022/03/07 07:00:41;;;;;;;34.27;5.73;;;24.30;93.90;;;;;;5046597;28;20172;-79
2022/03/07 07:03:08;;;;;;;26.80;6.10;;;24.00;94.50;;;;;;5050180;28;20196;-80
2022/03/07 07:05:36;;;;;;;30.63;6.30;;;24.00;95.10;;;;;;5051433;28;20212;-84
2022/03/07 07:08:03;;;;;;;26.77;6.13;;;24.00;95.20;;;;;;5053879;28;20164;-82
2022/03/07 07:10:30;;;;;;;29.13;6.97;;;24.00;95.30;;;;;;5054297;28;20184;-82
2022/03/07 07:12:58;;;;;;;29.47;6.73;;;24.00;95.40;;;;;;5044537;28;20168;-79
2022/03/07 07:15:25;;;;;;;33.23;7.50;;;23.90;95.50;;;;;;5054428;28;20179;-77
2022/03/07 07:17:53;;;;;;;27.80;7.20;;;24.00;95.70;;;;;;5056347;28;20253;-76
2022/03/07 07:20:20;;;;;;;21.07;7.17;;;24.00;95.70;;;;;;5055319;28;20172;-77
2022/03/07 07:22:47;;;;;;;25.00;6.43;;;23.90;95.70;;;;;;5046135;28;20263;-76
2022/03/07 07:25:15;;;;;;;17.37;5.77;;;23.90;95.60;;;;;;5048373;28;20184;-76
2022/03/07 07:27:42;;;;;;;17.33;4.87;;;23.70;95.60;;;;;;5051352;28;20206;-81
2022/03/07 07:30:10;;;;;;;10.93;4.20;;;23.20;95.00;;;;;;5052244;28;20236;-75
2022/03/07 07:32:39;;;;;;;12.60;3.90;;;22.90;95.60;;;;;;5036154;28;20184;-75
2022/03/07 07:35:10;;;;;;;5.83;4.10;;;22.90;95.60;;;;;;5047257;28;20772;-78
2022/03/07 07:37:38;;;;;;;12.10;4.63;;;23.00;95.60;;;;;;5071923;28;20172;-78
2022/03/07 07:40:07;;;;;;;9.87;5.50;;;23.10;95.40;;;;;;5051435;28;20735;-78
2022/03/07 07:42:35;;;;;;;11.83;6.17;;;23.10;95.60;;;;;;5051360;28;20184;-78
2022/03/07 07:45:02;;;;;;;21.40;6.90;;;23.30;95.60;;;;;;5055894;28;20180;-83
2022/03/07 07:47:29;;;;;;;17.90;7.03;;;23.30;95.80;;;;;;5054092;28;20191;-79
2022/03/07 07:49:56;;;;;;;19.37;7.77;;;23.30;95.90;;;;;;5044265;28;20208;-79
2022/03/07 07:52:24;;;;;;;20.63;7.63;;;23.40;96.00;;;;;;5035800;28;20176;-79
2022/03/07 07:54:51;;;;;;;21.70;7.40;;;23.40;96.00;;;;;;5047858;28;20196;-78
2022/03/07 07:57:19;;;;;;;22.70;7.93;;;23.50;96.10;;;;;;5039341;28;20180;-77
2022/03/07 07:59:46;;;;;;;19.53;7.80;;;23.50;96.10;;;;;;5045766;28;20179;-76
2022/03/07 08:02:13;;;;;;;20.17;8.77;;;23.40;96.00;;;;;;5043077;28;20180;-76
2022/03/07 08:04:41;;;;;;;20.07;7.60;;;23.50;96.00;;;;;;5053522;28;20275;-76
2022/03/07 08:07:08;;;;;;;15.27;7.30;;;23.50;96.10;;;;;;5055341;28;20215;-83
2022/03/07 08:09:35;;;;;;;11.77;6.13;;;23.40;95.90;;;;;;5050976;28;20572;-77
2022/03/07 08:12:03;;;;;;;9.37;5.60;;;23.20;95.80;;;;;;5043091;28;20707;-77
2022/03/07 08:14:30;;;;;;;10.20;5.80;;;23.00;95.60;;;;;;5055138;28;20172;-77
2022/03/07 08:16:58;;;;;;;9.77;5.50;;;22.90;95.50;;;;;;5045675;28;20176;-78
2022/03/07 08:19:25;;;;;;;11.47;5.60;;;22.80;95.30;;;;;;5054445;28;20184;-78
2022/03/07 08:21:52;;;;;;;9.57;4.90;;;22.80;95.60;;;;;;5038058;28;20180;-78
2022/03/07 08:24:20;;;;;;;7.07;5.53;;;22.90;95.60;;;;;;5048618;28;20180;-78
2022/03/07 08:26:47;;;;;;;9.47;5.27;;;23.00;95.80;;;;;;5044420;28;20176;-79
2022/03/07 08:29:14;;;;;;;10.93;5.47;;;23.00;95.80;;;;;;5043346;28;20204;-80
2022/03/07 08:31:42;;;;;;;10.10;6.00;;;23.00;95.70;;;;;;5049937;28;20180;-80
2022/03/07 08:34:09;;;;;;;11.83;6.77;;;23.00;95.70;;;;;;5054293;28;20179;-81
2022/03/07 08:36:36;;;;;;;16.07;7.10;;;23.10;95.90;;;;;;5044992;28;20181;-80
2022/03/07 08:39:04;;;;;;;13.97;6.77;;;23.10;95.90;;;;;;5031615;28;20277;-81
2022/03/07 08:41:33;;;;;;;13.37;7.00;;;23.10;95.90;;;;;;5048879;28;20698;-84
2022/03/07 08:44:02;;;;;;;15.30;7.93;;;23.20;95.90;;;;;;5047483;28;20546;-82
2022/03/07 08:46:29;;;;;;;12.00;8.07;;;23.20;96.00;;;;;;5048739;28;20630;-81
2022/03/07 08:48:57;;;;;;;11.83;7.93;;;23.20;96.10;;;;;;5035899;28;20216;-82
2022/03/07 08:51:24;;;;;;;13.63;7.70;;;23.30;96.00;;;;;;5044629;28;20179;-78
2022/03/07 08:53:52;;;;;;;9.73;7.43;;;23.30;96.00;;;;;;5052527;28;20184;-77
2022/03/07 08:56:19;;;;;;;11.73;7.40;;;23.20;96.00;;;;;;5052860;28;20172;-77
2022/03/07 08:58:46;;;;;;;16.57;7.43;;;23.20;96.00;;;;;;5051852;28;20214;-78
2022/03/07 09:01:15;;;;;;;16.57;8.10;;;23.20;96.10;;;;;;5049248;28;20188;-77
2022/03/07 09:03:42;;;;;;;12.70;7.37;;;23.20;96.10;;;;;;5053953;28;20652;-78
2022/03/07 09:06:09;;;;;;;15.07;7.67;;;23.10;96.10;;;;;;5053876;28;20228;-78
2022/03/07 09:08:37;;;;;;;12.17;7.03;;;23.10;96.30;;;;;;5053402;28;20626;-78
2022/03/07 09:11:04;;;;;;;10.30;6.63;;;23.10;96.30;;;;;;5053193;28;20191;-78
2022/03/07 09:13:32;;;;;;;7.00;6.17;;;23.10;96.30;;;;;;5043286;28;20192;-78
2022/03/07 09:15:59;;;;;;;11.57;6.70;;;23.10;96.30;;;;;;5053734;28;20567;-79
2022/03/07 09:18:27;;;;;;;10.23;6.37;;;23.00;96.30;;;;;;5053629;28;20199;-79
2022/03/07 09:20:56;;;;;;;10.93;6.43;;;23.00;96.30;;;;;;5043065;28;20242;-78
2022/03/07 09:23:24;;;;;;;12.97;6.37;;;23.00;96.20;;;;;;5053053;28;20174;-78
2022/03/07 09:25:51;;;;;;;7.00;5.13;;;23.00;96.20;;;;;;5046895;28;20184;-79
2022/03/07 09:28:18;;;;;;;9.60;6.27;;;22.90;96.10;;;;;;5039042;28;20213;-79
2022/03/07 09:30:46;;;;;;;15.40;6.50;;;23.00;96.20;;;;;;5044447;28;20181;-78
2022/03/07 09:33:13;;;;;;;12.93;7.60;;;23.00;96.20;;;;;;5037924;28;20178;-77
2022/03/07 09:35:40;;;;;;;12.43;6.90;;;23.00;96.30;;;;;;5053886;28;20172;-77
2022/03/07 09:38:08;;;;;;;10.37;7.17;;;23.00;96.40;;;;;;5053748;28;20198;-77
2022/03/07 09:40:36;;;;;;;12.50;7.93;;;23.00;96.40;;;;;;5042505;28;20272;-78
2022/03/07 09:43:03;;;;;;;9.40;7.50;;;23.00;96.40;;;;;;5033749;28;20168;-78
2022/03/07 09:45:31;;;;;;;8.93;7.17;;;22.90;96.30;;;;;;5038886;28;20182;-77
2022/03/07 09:47:58;;;;;;;8.73;6.70;;;22.90;96.30;;;;;;5052777;28;20180;-78
2022/03/07 09:50:26;;;;;;;7.70;6.97;;;22.90;96.30;;;;;;5052801;28;20179;-77
2022/03/07 09:52:56;;;;;;;9.30;6.63;;;22.80;96.30;;;;;;5052229;28;20164;-78
2022/03/07 09:55:24;;;;;;;7.20;6.50;;;22.80;96.40;;;;;;5046188;28;20766;-79
2022/03/07 09:57:52;;;;;;;7.70;7.00;;;22.90;96.40;;;;;;5033244;28;20246;-78
2022/03/07 10:00:20;;;;;;;7.87;7.13;;;22.80;96.40;;;;;;5046116;28;20173;-78
2022/03/07 10:02:59;;;;;;;10.97;7.20;;;22.80;96.40;;;;;;5032852;28;20169;-81
2022/03/07 10:05:32;;;;;;;8.07;7.20;;;22.80;96.50;;;;;;5033008;28;20270;-76
2022/03/07 10:07:59;;;;;;;8.30;7.13;;;22.80;96.50;;;;;;5038128;28;20184;-77
2022/03/07 10:10:36;;;;;;;9.83;7.93;;;22.80;96.50;;;;;;5043308;28;20224;-78
2022/03/07 10:13:12;;;;;;;10.50;8.40;;;22.80;96.60;;;;;;5039309;28;20203;-78
2022/03/07 10:15:42;;;;;;;8.93;7.93;;;22.80;96.60;;;;;;5053352;28;20249;-76
2022/03/07 10:18:17;;;;;;;8.40;7.57;;;22.80;96.60;;;;;;5034269;28;20184;-79
2022/03/07 10:20:52;;;;;;;8.47;7.77;;;22.90;96.70;;;;;;5051387;28;20550;-78
2022/03/07 10:23:20;;;;;;;9.57;8.73;;;22.80;96.60;;;;;;5049918;28;20191;-79
2022/03/07 10:25:49;;;;;;;9.67;8.10;;;22.80;96.60;;;;;;5048889;28;20237;-78
2022/03/07 10:28:16;;;;;;;8.43;7.73;;;22.80;96.60;;;;;;5051057;28;20263;-79
2022/03/07 10:30:43;;;;;;;8.77;7.87;;;22.80;96.60;;;;;;5050960;28;20188;-79
2022/03/07 10:33:13;;;;;;;8.83;7.93;;;22.80;96.60;;;;;;5050441;28;20613;-77
2022/03/07 10:35:43;;;;;;;8.17;7.47;;;22.80;96.60;;;;;;5044682;28;20184;-77
2022/03/07 10:38:14;;;;;;;8.40;7.40;;;22.80;96.60;;;;;;5032606;28;20275;-77
2022/03/07 10:40:44;;;;;;;8.47;7.67;;;22.80;96.60;;;;;;5038334;28;20188;-80
2022/03/07 10:43:12;;;;;;;9.40;8.40;;;22.80;96.70;;;;;;5048737;28;20305;-77
2022/03/07 10:45:53;;;;;;;8.93;8.13;;;22.80;96.70;;;;;;5052726;28;20184;-81
2022/03/07 10:48:22;;;;;;;12.93;9.23;;;22.90;96.80;;;;;;5051803;28;20200;-79
2022/03/07 10:50:54;;;;;;;9.03;8.43;;;22.90;96.80;;;;;;5052108;28;20180;-81
2022/03/07 10:53:22;;;;;;;8.23;7.53;;;22.90;96.80;;;;;;5051522;28;20172;-81
2022/03/07 10:55:55;;;;;;;8.53;7.20;;;22.80;96.80;;;;;;5050533;28;20223;-80
2022/03/07 10:58:23;;;;;;;8.20;7.43;;;22.80;96.90;;;;;;5044021;28;20208;-80
2022/03/07 11:00:54;;;;;;;8.40;7.70;;;22.80;96.90;;;;;;5036399;28;20234;-79
2022/03/07 11:03:30;;;;;;;8.60;7.90;;;22.80;97.00;;;;;;5049476;28;20180;-80
2022/03/07 11:05:59;;;;;;;7.53;7.00;;;22.80;97.10;;;;;;5042453;28;20304;-78
2022/03/07 11:08:28;;;;;;;7.93;7.03;;;22.80;97.00;;;;;;5050204;28;20204;-87
2022/03/07 11:10:57;;;;;;;7.47;6.67;;;22.80;97.00;;;;;;5050624;28;20183;-85
2022/03/07 11:13:29;;;;;;;8.97;6.93;;;22.80;96.90;;;;;;5047638;28;20179;-78
2022/03/07 11:16:02;;;;;;;6.83;6.00;;;22.70;96.80;;;;;;5052166;28;20171;-78
2022/03/07 11:18:32;;;;;;;6.20;5.60;;;22.60;96.70;;;;;;5052533;28;20196;-77
2022/03/07 11:21:02;;;;;;;6.30;5.90;;;22.50;96.70;;;;;;5041464;28;20231;-78
2022/03/07 11:23:30;;;;;;;7.23;6.53;;;22.40;96.80;;;;;;5032557;28;20172;-79
2022/03/07 11:26:00;;;;;;;6.60;6.00;;;22.40;96.80;;;;;;5047297;28;20184;-79
2022/03/07 11:28:30;;;;;;;7.63;6.40;;;22.40;96.90;;;;;;5050927;28;20681;-79
2022/03/07 11:30:58;;;;;;;6.33;5.80;;;22.40;96.90;;;;;;5042573;28;20177;-79
2022/03/07 11:33:33;;;;;;;8.00;5.87;;;22.40;96.90;;;;;;5052296;28;20167;-78
2022/03/07 11:36:03;;;;;;;6.33;5.70;;;22.30;96.80;;;;;;5050199;28;20270;-79
2022/03/07 11:38:31;;;;;;;6.27;5.67;;;22.30;96.80;;;;;;5046782;28;20187;-78
2022/03/07 11:41:14;;;;;;;6.83;5.73;;;22.30;96.80;;;;;;5051575;28;20214;-81
2022/03/07 11:44:00;;;;;;;9.93;6.03;;;22.30;96.90;;;;;;5051704;28;20165;-78
2022/03/07 11:46:38;;;;;;;6.53;5.87;;;22.30;97.00;;;;;;5055601;28;20301;-79
2022/03/07 11:49:09;;;;;;;5.70;5.13;;;22.40;97.00;;;;;;5055886;28;20199;-82
2022/03/07 11:51:39;;;;;;;8.23;6.07;;;22.30;96.90;;;;;;5055602;28;20191;-79
2022/03/07 11:54:23;;;;;;;6.07;5.53;;;22.20;96.70;;;;;;5055297;28;20184;-78
2022/03/07 11:56:51;;;;;;;8.30;6.83;;;22.10;96.70;;;;;;5054911;28;20168;-78
2022/03/07 11:59:30;;;;;;;9.77;8.30;;;22.10;96.90;;;;;;5055432;28;20176;-78
2022/03/07 12:01:58;;;;;;;8.70;7.80;;;22.10;96.90;;;;;;5049903;28;20713;-78
2022/03/07 12:04:25;;;;;;;13.23;11.83;;;22.10;96.90;;;;;;5055598;28;20172;-79
2022/03/07 12:06:54;;;;;;;11.83;8.67;;;22.10;96.90;;;;;;5053177;28;20255;-79
2022/03/07 12:09:32;;;;;;;10.87;7.13;;;22.10;97.00;;;;;;5055370;28;20226;-78
2022/03/07 12:12:06;;;;;;;10.03;7.27;;;22.10;97.00;;;;;;5038716;28;20267;-79
2022/03/07 12:14:39;;;;;;;10.37;7.10;;;22.10;97.00;;;;;;5040001;28;20179;-78
2022/03/07 12:17:26;;;;;;;10.20;6.53;;;22.10;97.10;;;;;;5055066;28;20168;-78
2022/03/07 12:19:55;;;;;;;15.60;7.80;;;22.10;97.00;;;;;;5054811;28;20630;-78
2022/03/07 12:22:26;;;;;;;10.37;7.20;;;22.10;97.10;;;;;;5053417;28;20207;-78
2022/03/07 12:24:57;;;;;;;11.10;7.17;;;22.20;97.10;;;;;;5051444;28;20259;-78
2022/03/07 12:27:24;;;;;;;8.73;7.33;;;22.10;97.00;;;;;;5052970;28;20168;-78
2022/03/07 12:29:52;;;;;;;8.67;6.63;;;22.00;97.00;;;;;;5052390;28;20786;-78
2022/03/07 12:32:20;;;;;;;10.80;6.10;;;22.00;96.90;;;;;;5053809;28;20638;-77
2022/03/07 12:34:48;;;;;;;8.63;6.83;;;21.90;96.90;;;;;;5053983;28;20539;-78
2022/03/07 12:37:21;;;;;;;10.47;6.30;;;21.90;96.90;;;;;;5053513;28;20168;-77
2022/03/07 12:39:54;;;;;;;8.50;6.50;;;21.90;96.90;;;;;;5054783;28;20179;-78
2022/03/07 12:42:24;;;;;;;9.07;6.70;;;21.90;96.90;;;;;;5048787;28;20176;-78